Airport View

Enter AWOS ICAO identifier for current METAR.

ex. KFNL

KRWI 300353Z AUTO 19009G17KT 10SM OVC019 24/21 A2954 RMK AO2 SLP999 T02390211

30 Oct 2020 04:07

Frequency: 118.875

Phone: 252-446-0732

Other Area AWOS: KETC - KLHZ - KGWW - KPGV

TAF AMD KRWI 300337Z 3004/3024 20012G19KT P6SM BKN020 FM300500 24020G35KT 1 1/2SM TSRA BKN010 OVC025CB FM300700 23012G25KT 6SM -SHRA BKN015 FM300900 26012G25KT P6SM BKN025 FM301300 31012G20KT P6SM SCT025